Time;durP1;ratioP1;P1;durP2;ratioP2;P2;SDS_P1;SDS_P2;PMS_P1;PMS_P2;Temp;Humidity;BMP_temperature;BMP_pressure;BME280_temperature;BME280_humidity;BME280_pressure;Samples;Min_cycle;Max_cycle;Signal;HPM_P1;HPM_P2
2019/07/20 00:02:17;;;;;;;7.4;5.6;;;;;;;20.7;70.05566;1000.926;;;;
2019/07/20 00:04:42;;;;;;;7.3;5.4;;;;;;;20.78;69.54004;1000.94;;;;
2019/07/20 00:07:07;;;;;;;7.3;5.2;;;;;;;20.76;69.70117;1000.896;;;;
2019/07/20 00:09:32;;;;;;;5.8;5.2;;;;;;;20.77;69.55176;1000.862;;;;
2019/07/20 00:11:57;;;;;;;6.2;5.1;;;;;;;20.68;69.98145;1000.886;;;;
2019/07/20 00:14:22;;;;;;;6.7;5.5;;;;;;;20.67;70.01465;1000.865;;;;
2019/07/20 00:16:48;;;;;;;8.1;5.2;;;;;;;20.59;70.24805;1000.811;;;;
2019/07/20 00:19:13;;;;;;;8.1;5.2;;;;;;;20.6;70.18066;1000.764;;;;
2019/07/20 00:21:38;;;;;;;6.8;5.8;;;;;;;20.56;70.32617;1000.726;;;;
2019/07/20 00:24:03;;;;;;;6.6;5.2;;;;;;;20.54;70.3916;1000.757;;;;
2019/07/20 00:26:29;;;;;;;8;5.5;;;;;;;20.54;70.30957;1000.729;;;;
2019/07/20 00:28:54;;;;;;;8.9;5.4;;;;;;;20.56;70.19727;1000.717;;;;
2019/07/20 00:31:19;;;;;;;6.9;5.3;;;;;;;20.61;69.86621;1000.705;;;;
2019/07/20 00:33:44;;;;;;;5.9;5.3;;;;;;;20.65;69.6377;1000.666;;;;
2019/07/20 00:36:09;;;;;;;7.9;5.6;;;;;;;20.66;69.58008;1000.687;;;;
2019/07/20 00:38:34;;;;;;;7;5.6;;;;;;;20.61;69.62012;1000.658;;;;
2019/07/20 00:40:59;;;;;;;6.8;5.4;;;;;;;20.7;69.24707;1000.628;;;;
2019/07/20 00:43:24;;;;;;;7.2;5.4;;;;;;;20.62;69.45605;1000.657;;;;
2019/07/20 00:45:50;;;;;;;7.7;6.3;;;;;;;20.67;69.27734;1000.626;;;;
2019/07/20 00:48:15;;;;;;;7.2;5.5;;;;;;;20.59;69.49902;1000.641;;;;
2019/07/20 00:50:40;;;;;;;6.7;5.1;;;;;;;20.59;69.56934;1000.63;;;;
2019/07/20 00:53:05;;;;;;;7.3;5.2;;;;;;;20.6;69.46484;1000.622;;;;
2019/07/20 00:55:30;;;;;;;7;5.4;;;;;;;20.55;69.59863;1000.609;;;;
2019/07/20 00:57:55;;;;;;;8.6;5.6;;;;;;;20.56;69.41211;1000.615;;;;
2019/07/20 01:00:21;;;;;;;6.7;5.2;;;;;;;20.58;69.32324;1000.587;;;;
2019/07/20 01:02:46;;;;;;;8.6;5.6;;;;;;;20.52;69.55762;1000.571;;;;
2019/07/20 01:05:12;;;;;;;8.3;5.3;;;;;;;20.55;69.5166;1000.527;;;;
2019/07/20 01:07:37;;;;;;;9.7;5.9;;;;;;;20.6;69.20898;1000.556;;;;
2019/07/20 01:10:02;;;;;;;7.6;5.4;;;;;;;20.5;69.5791;1000.521;;;;
2019/07/20 01:12:27;;;;;;;8.1;5.8;;;;;;;20.41;69.84668;1000.494;;;;
2019/07/20 01:14:52;;;;;;;7.3;6;;;;;;;20.38;70.04004;1000.475;;;;
2019/07/20 01:17:18;;;;;;;7.7;5.7;;;;;;;20.41;69.73926;1000.493;;;;
2019/07/20 01:19:43;;;;;;;8.2;5.6;;;;;;;20.4;69.79688;1000.514;;;;
2019/07/20 01:22:08;;;;;;;9.1;5.5;;;;;;;20.36;69.88477;1000.503;;;;
2019/07/20 01:24:33;;;;;;;6.7;5.8;;;;;;;20.3;70.33105;1000.483;;;;
2019/07/20 01:26:58;;;;;;;7.3;5.3;;;;;;;20.32;70.01758;1000.485;;;;
2019/07/20 01:29:23;;;;;;;5.9;5.3;;;;;;;20.37;70.07227;1000.496;;;;
2019/07/20 01:31:48;;;;;;;6.8;5.5;;;;;;;20.36;69.83691;1000.443;;;;
2019/07/20 01:34:14;;;;;;;7.3;5.7;;;;;;;20.39;69.6543;1000.434;;;;
2019/07/20 01:36:39;;;;;;;8.3;5.6;;;;;;;20.37;69.69922;1000.44;;;;
2019/07/20 01:39:04;;;;;;;8.3;6;;;;;;;20.34;69.84668;1000.405;;;;
2019/07/20 01:41:29;;;;;;;9.4;5.8;;;;;;;20.31;70.0752;1000.419;;;;
2019/07/20 01:43:54;;;;;;;9.6;5.7;;;;;;;20.33;69.91406;1000.386;;;;
2019/07/20 01:46:20;;;;;;;7;5.6;;;;;;;20.25;70.19531;1000.389;;;;
2019/07/20 01:48:44;;;;;;;7.5;5.7;;;;;;;20.22;70.25977;1000.387;;;;
2019/07/20 01:51:09;;;;;;;7;5.8;;;;;;;20.2;70.19824;1000.365;;;;
2019/07/20 01:53:35;;;;;;;12.6;5.6;;;;;;;20.22;70.14453;1000.367;;;;
2019/07/20 01:56:00;;;;;;;7.8;5.7;;;;;;;20.21;70.06934;1000.319;;;;
2019/07/20 01:58:25;;;;;;;6.6;5.3;;;;;;;20.15;70.20117;1000.296;;;;
2019/07/20 02:01:08;;;;;;;6.8;5.4;;;;;;;20.22;69.87402;1000.258;;;;
2019/07/20 02:03:16;;;;;;;7.3;5.8;;;;;;;20.29;69.58105;1000.273;;;;
2019/07/20 02:05:41;;;;;;;8.2;5.9;;;;;;;20.24;69.66602;1000.211;;;;
2019/07/20 02:08:06;;;;;;;6.7;5.6;;;;;;;20.19;69.86816;1000.225;;;;
2019/07/20 02:10:31;;;;;;;9.7;5.7;;;;;;;20.16;70.09961;1000.181;;;;
2019/07/20 02:12:56;;;;;;;7.5;6.3;;;;;;;20.17;70.00586;1000.149;;;;
2019/07/20 02:15:22;;;;;;;7;5.8;;;;;;;20.15;70.18945;1000.08;;;;
2019/07/20 02:17:47;;;;;;;7.9;5.9;;;;;;;20.14;70.21191;1000.071;;;;
2019/07/20 02:20:12;;;;;;;7.5;5.4;;;;;;;20.03;70.62793;1000.065;;;;
2019/07/20 02:22:37;;;;;;;7.3;6;;;;;;;19.98;70.74902;1000.102;;;;
2019/07/20 02:25:02;;;;;;;7.3;6.2;;;;;;;20.01;70.57617;1000.077;;;;
2019/07/20 02:27:27;;;;;;;8.1;6;;;;;;;19.97;70.64063;1000.098;;;;
2019/07/20 02:29:53;;;;;;;7.9;6;;;;;;;19.99;70.44531;1000.026;;;;
2019/07/20 02:32:18;;;;;;;6.9;5.8;;;;;;;20.03;70.12598;1000.001;;;;
2019/07/20 02:34:43;;;;;;;9.1;5.7;;;;;;;19.99;70.36426;999.9294;;;;
2019/07/20 02:37:08;;;;;;;6.8;5.7;;;;;;;20.04;69.70605;999.9275;;;;
2019/07/20 02:39:34;;;;;;;7.8;5.8;;;;;;;20.14;69.61523;999.9553;;;;
2019/07/20 02:41:59;;;;;;;7.5;5.9;;;;;;;20.07;70.48242;999.9429;;;;
2019/07/20 02:44:24;;;;;;;8.8;6.1;;;;;;;20.01;71.12598;999.9135;;;;
2019/07/20 02:46:49;;;;;;;8;5.8;;;;;;;19.86;72.14551;999.9473;;;;
2019/07/20 02:49:14;;;;;;;7.9;6;;;;;;;19.74;72.7207;999.9289;;;;
2019/07/20 02:51:39;;;;;;;9.9;6.2;;;;;;;19.55;73.32129;999.9199;;;;
2019/07/20 02:54:04;;;;;;;8.7;6.4;;;;;;;19.52;72.55664;999.9338;;;;
2019/07/20 02:56:30;;;;;;;9.4;6.1;;;;;;;19.59;72.25195;999.9295;;;;
2019/07/20 02:58:55;;;;;;;9.1;6.3;;;;;;;19.62;71.81348;999.9127;;;;
2019/07/20 03:01:20;;;;;;;10.8;5.8;;;;;;;19.71;71.44238;999.9303;;;;
2019/07/20 03:03:45;;;;;;;7.1;6.1;;;;;;;19.75;71.14453;999.9667;;;;
2019/07/20 03:06:10;;;;;;;6.7;5.7;;;;;;;19.84;70.69043;999.9483;;;;
2019/07/20 03:08:35;;;;;;;7.8;5.9;;;;;;;19.88;70.5332;999.9523;;;;
2019/07/20 03:11:01;;;;;;;7.4;6.2;;;;;;;19.9;70.37207;999.9673;;;;
2019/07/20 03:13:26;;;;;;;8.3;6.3;;;;;;;19.95;70.24023;999.918;;;;
2019/07/20 03:15:51;;;;;;;7.4;5.7;;;;;;;19.94;70.29883;999.9144;;;;
2019/07/20 03:18:16;;;;;;;8.9;6.3;;;;;;;19.81;71.69043;999.9343;;;;
2019/07/20 03:20:41;;;;;;;8;6.1;;;;;;;19.56;73.15918;999.897;;;;
2019/07/20 03:23:06;;;;;;;9.1;6.2;;;;;;;19.5;72.70605;999.9222;;;;
2019/07/20 03:25:32;;;;;;;9;6.3;;;;;;;19.34;73.25195;999.8477;;;;
2019/07/20 03:27:56;;;;;;;10.1;6.2;;;;;;;19.32;73.17676;999.8326;;;;
2019/07/20 03:30:22;;;;;;;8.5;6.3;;;;;;;19.36;72.99805;999.8211;;;;
2019/07/20 03:32:47;;;;;;;8.9;6.5;;;;;;;19.46;72.65137;999.8211;;;;
2019/07/20 03:35:12;;;;;;;9.1;6.2;;;;;;;19.48;72.43262;999.8625;;;;
2019/07/20 03:37:37;;;;;;;8.7;6.3;;;;;;;19.42;72.76074;999.8247;;;;
2019/07/20 03:40:02;;;;;;;7.9;6.3;;;;;;;19.43;72.62402;999.8397;;;;
2019/07/20 03:42:27;;;;;;;9;6.3;;;;;;;19.4;72.74805;999.8234;;;;
2019/07/20 03:44:52;;;;;;;8.8;6.6;;;;;;;19.45;72.60352;999.817;;;;
2019/07/20 03:47:17;;;;;;;9.7;6.4;;;;;;;19.48;73.02832;999.835;;;;
2019/07/20 03:49:43;;;;;;;12.5;6.9;;;;;;;19.41;73.4375;999.808;;;;
2019/07/20 03:52:08;;;;;;;10.2;7.1;;;;;;;19.23;73.79297;999.8165;;;;
2019/07/20 03:54:33;;;;;;;14.3;7.8;;;;;;;19.27;74.40625;999.7812;;;;
2019/07/20 03:56:58;;;;;;;11.7;7.3;;;;;;;19.16;75.04199;999.8475;;;;
2019/07/20 03:59:24;;;;;;;11.9;6.9;;;;;;;19.06;74.86133;999.8353;;;;
2019/07/20 04:02:28;;;;;;;12.3;7.1;;;;;;;19.07;74.63086;999.8214;;;;
2019/07/20 04:04:53;;;;;;;11.9;6.9;;;;;;;19.07;75.24805;999.858;;;;
2019/07/20 04:07:18;;;;;;;18.9;9.4;;;;;;;19.08;75.28516;999.8335;;;;
2019/07/20 04:09:43;;;;;;;9.8;6.9;;;;;;;19.13;75.3291;999.853;;;;
2019/07/20 04:12:08;;;;;;;10.7;7;;;;;;;19.15;75.11035;999.8;;;;
2019/07/20 04:14:33;;;;;;;13.3;7.5;;;;;;;19.05;75.4668;999.7313;;;;
2019/07/20 04:16:59;;;;;;;9.1;6.9;;;;;;;18.94;75.91504;999.7748;;;;
2019/07/20 04:19:24;;;;;;;8.9;6.5;;;;;;;18.95;75.81152;999.8269;;;;
2019/07/20 04:21:49;;;;;;;10.4;6.9;;;;;;;19;75.9707;999.8541;;;;
2019/07/20 04:24:14;;;;;;;9.3;6.5;;;;;;;19.04;75.89844;999.8523;;;;
2019/07/20 04:26:39;;;;;;;8.8;6.8;;;;;;;19;76.1123;999.8929;;;;
2019/07/20 04:29:04;;;;;;;10.1;6.6;;;;;;;19.06;76.02832;999.8616;;;;
2019/07/20 04:31:29;;;;;;;12.2;6.7;;;;;;;19.1;75.93164;999.8533;;;;
2019/07/20 04:33:54;;;;;;;13.2;8.3;;;;;;;19.17;75.31348;999.8565;;;;
2019/07/20 04:36:19;;;;;;;10.5;6.5;;;;;;;19.15;76.00879;999.8531;;;;
2019/07/20 04:38:45;;;;;;;9.1;7.2;;;;;;;19.1;76.22363;999.8613;;;;
2019/07/20 04:41:12;;;;;;;14.4;7;;;;;;;19.36;74.71484;999.8539;;;;
2019/07/20 04:43:35;;;;;;;13.4;6.8;;;;;;;19.51;73.93457;999.86;;;;
2019/07/20 04:46:00;;;;;;;9.6;6.9;;;;;;;19.48;75.16699;999.8894;;;;
2019/07/20 04:48:25;;;;;;;8.6;7;;;;;;;19.58;74.49414;999.9186;;;;
2019/07/20 04:50:50;;;;;;;10.8;6.2;;;;;;;19.85;72.49316;999.9523;;;;
2019/07/20 04:53:15;;;;;;;8.9;7;;;;;;;19.85;72.79688;999.9982;;;;
2019/07/20 04:55:40;;;;;;;8.1;6.4;;;;;;;19.78;72.8457;999.9644;;;;
2019/07/20 04:58:05;;;;;;;9.2;6.6;;;;;;;20.01;71.77148;999.9611;;;;
2019/07/20 05:00:31;;;;;;;9.9;6.2;;;;;;;20.32;70.72168;1000.021;;;;
2019/07/20 05:02:56;;;;;;;9.1;6.4;;;;;;;20.47;70.05371;1000.071;;;;
2019/07/20 05:05:21;;;;;;;8.4;6.3;;;;;;;20.44;70.21191;1000.049;;;;
2019/07/20 05:07:46;;;;;;;8.3;5.9;;;;;;;20.82;69.04297;1000.044;;;;
2019/07/20 05:10:11;;;;;;;8.6;6.5;;;;;;;21.13;67.15527;1000.03;;;;
2019/07/20 05:12:36;;;;;;;8.7;6.5;;;;;;;21.28;66.5332;1000.02;;;;
2019/07/20 05:15:01;;;;;;;8.5;6;;;;;;;21.11;67.22461;1000.062;;;;
2019/07/20 05:17:26;;;;;;;9.2;6.2;;;;;;;21.47;65.64746;1000.038;;;;
2019/07/20 05:19:51;;;;;;;8.2;6.1;;;;;;;21.41;65.86035;1000.065;;;;
2019/07/20 05:22:16;;;;;;;7.9;5.9;;;;;;;21.1;66.9873;1000.053;;;;
2019/07/20 05:24:42;;;;;;;7.1;6;;;;;;;21.25;66.92871;1000.037;;;;
2019/07/20 05:27:07;;;;;;;8.6;5.9;;;;;;;21.08;68.09766;1000.055;;;;
2019/07/20 05:29:32;;;;;;;9.1;6;;;;;;;21.44;65.94629;1000.072;;;;
2019/07/20 05:31:57;;;;;;;8.1;6.3;;;;;;;21.57;65.27344;1000.069;;;;
2019/07/20 05:34:22;;;;;;;9.8;6.3;;;;;;;21.74;64.71191;1000.015;;;;
2019/07/20 05:36:47;;;;;;;10.3;6.8;;;;;;;21.65;64.88672;999.9934;;;;
2019/07/20 05:39:13;;;;;;;8.9;6.6;;;;;;;22.02;63.54199;1000.016;;;;
2019/07/20 05:41:38;;;;;;;7.3;6.2;;;;;;;22.06;63.81836;1000.027;;;;
2019/07/20 05:44:03;;;;;;;10.4;7;;;;;;;21.9;64.65332;1000.087;;;;
2019/07/20 05:46:28;;;;;;;7.7;6.2;;;;;;;22.06;63.95801;1000.104;;;;
2019/07/20 05:48:53;;;;;;;8.5;6.2;;;;;;;22.32;63.26855;1000.128;;;;
2019/07/20 05:51:18;;;;;;;8.9;6.7;;;;;;;22.25;63.19922;1000.14;;;;
2019/07/20 05:53:43;;;;;;;8;6.2;;;;;;;22.05;63.875;1000.144;;;;
2019/07/20 05:56:08;;;;;;;7.6;6.3;;;;;;;21.99;64.04199;1000.11;;;;
2019/07/20 05:58:34;;;;;;;7.6;6.4;;;;;;;22.68;62.03516;1000.15;;;;
2019/07/20 06:00:59;;;;;;;9.9;6.5;;;;;;;23.43;59.34668;1000.176;;;;
2019/07/20 06:03:24;;;;;;;7.4;5.9;;;;;;;23.98;57.95508;1000.222;;;;
2019/07/20 06:05:49;;;;;;;9;6.6;;;;;;;23.47;59.42285;1000.226;;;;
2019/07/20 06:08:14;;;;;;;9;6.6;;;;;;;23.25;60.04199;1000.247;;;;
2019/07/20 06:10:39;;;;;;;10;6.4;;;;;;;23.58;58.72949;1000.266;;;;
2019/07/20 06:13:05;;;;;;;9.1;6.5;;;;;;;23.56;58.91602;1000.274;;;;
2019/07/20 06:15:30;;;;;;;9.1;6.9;;;;;;;23.78;58.54297;1000.35;;;;
2019/07/20 06:17:55;;;;;;;9;6.2;;;;;;;24.06;57.43555;1000.331;;;;
2019/07/20 06:20:21;;;;;;;9.2;6.4;;;;;;;23.84;58.55176;1000.363;;;;
2019/07/20 06:22:46;;;;;;;8.9;6.6;;;;;;;24;57.84082;1000.256;;;;
2019/07/20 06:25:11;;;;;;;10.1;7;;;;;;;24.3;57.00488;1000.341;;;;
2019/07/20 06:27:36;;;;;;;10.3;6.2;;;;;;;24.36;57.26172;1000.293;;;;
2019/07/20 06:30:01;;;;;;;9.9;6.5;;;;;;;24.22;57.13672;1000.236;;;;
2019/07/20 06:32:26;;;;;;;8.6;6.6;;;;;;;23.9;57.98145;1000.235;;;;
2019/07/20 06:34:51;;;;;;;9.7;6.7;;;;;;;24.03;57.44336;1000.205;;;;
2019/07/20 06:37:17;;;;;;;7.5;6.5;;;;;;;23.95;58.34082;1000.152;;;;
2019/07/20 06:39:42;;;;;;;8.1;6.5;;;;;;;24.37;57.29785;1000.178;;;;
2019/07/20 06:42:07;;;;;;;7.9;6.4;;;;;;;24.16;57.16504;1000.179;;;;
2019/07/20 06:44:32;;;;;;;9;6.3;;;;;;;24.68;56.3457;1000.202;;;;
2019/07/20 06:46:57;;;;;;;8.3;6.4;;;;;;;24.63;56.18555;1000.225;;;;
2019/07/20 06:49:22;;;;;;;10;6.3;;;;;;;24.84;55.77344;1000.284;;;;
2019/07/20 06:51:47;;;;;;;8.1;5.9;;;;;;;25.41;54.41211;1000.278;;;;
2019/07/20 06:54:12;;;;;;;7.8;6.5;;;;;;;25.49;53.34473;1000.245;;;;
2019/07/20 06:56:37;;;;;;;7.7;6;;;;;;;26.02;52.35156;1000.247;;;;
2019/07/20 06:59:03;;;;;;;8.9;6;;;;;;;26.78;50.46875;1000.18;;;;
2019/07/20 07:01:28;;;;;;;9.1;5.9;;;;;;;27.3;48.73145;1000.174;;;;
2019/07/20 07:03:53;;;;;;;10.8;5.7;;;;;;;29.07;44.38672;1000.179;;;;
2019/07/20 07:06:18;;;;;;;6.6;5.8;;;;;;;29.69;42.72656;1000.175;;;;
2019/07/20 07:08:43;;;;;;;8.3;5.7;;;;;;;31.38;39.14258;1000.093;;;;
2019/07/20 07:11:09;;;;;;;8.9;5.6;;;;;;;31.1;39.66992;1000.112;;;;
2019/07/20 07:13:34;;;;;;;6.3;5.3;;;;;;;32.29;37.09277;1000.098;;;;
2019/07/20 07:15:59;;;;;;;9.2;5.5;;;;;;;34.08;33.5459;1000.109;;;;
2019/07/20 07:18:24;;;;;;;7.8;5.7;;;;;;;33.71;33.75879;1000.082;;;;
2019/07/20 07:20:49;;;;;;;7.6;5.3;;;;;;;33.47;34.77832;1000.099;;;;
2019/07/20 07:23:14;;;;;;;6;5.4;;;;;;;34.25;33.31641;1000.111;;;;
2019/07/20 07:25:39;;;;;;;7;5.4;;;;;;;34.24;33.0625;1000.08;;;;
2019/07/20 07:28:04;;;;;;;6.3;5.3;;;;;;;35.03;31.7041;1000.046;;;;
2019/07/20 07:30:30;;;;;;;7.3;5.4;;;;;;;34.92;31.87793;1000.019;;;;
2019/07/20 07:32:55;;;;;;;8.9;5.4;;;;;;;34.83;31.7627;999.9811;;;;
2019/07/20 07:35:20;;;;;;;7.4;5.4;;;;;;;33.54;33.95215;999.9533;;;;
2019/07/20 07:37:45;;;;;;;6;5.4;;;;;;;33.84;33.54004;1000.03;;;;
2019/07/20 07:40:10;;;;;;;8.4;5.7;;;;;;;34.8;31.92969;999.9972;;;;
2019/07/20 07:42:35;;;;;;;6.8;5.9;;;;;;;35.09;31.47852;999.9817;;;;
2019/07/20 07:45:00;;;;;;;9.1;5.8;;;;;;;36.69;28.69824;999.9012;;;;
2019/07/20 07:47:26;;;;;;;7.3;5.5;;;;;;;36.97;28.35254;999.8878;;;;
2019/07/20 07:49:51;;;;;;;7.3;5.6;;;;;;;36.05;29.66602;999.8618;;;;
2019/07/20 07:52:16;;;;;;;7;5.4;;;;;;;36.87;28.54004;999.822;;;;
2019/07/20 07:54:41;;;;;;;9;5.9;;;;;;;38.16;26.22168;999.8215;;;;
2019/07/20 07:57:06;;;;;;;7;5.5;;;;;;;38.71;25.85059;999.871;;;;
2019/07/20 07:59:31;;;;;;;6.7;5.2;;;;;;;38.1;26.72949;999.8358;;;;
2019/07/20 08:01:56;;;;;;;6.2;5.4;;;;;;;36.71;28.76172;999.8353;;;;
2019/07/20 08:04:22;;;;;;;6.7;5.2;;;;;;;36.54;28.37402;999.867;;;;
2019/07/20 08:06:46;;;;;;;7.9;4.9;;;;;;;36.74;28.30078;999.8336;;;;
2019/07/20 08:09:12;;;;;;;7.6;5.3;;;;;;;35.86;29.08301;999.8148;;;;
2019/07/20 08:11:37;;;;;;;6.3;5;;;;;;;36.07;28.67188;999.8098;;;;
2019/07/20 08:14:02;;;;;;;6;4.9;;;;;;;36.54;27.91309;999.815;;;;
2019/07/20 08:16:27;;;;;;;5.7;5.1;;;;;;;36.22;28.18457;999.8231;;;;
2019/07/20 08:18:52;;;;;;;9.3;5.4;;;;;;;38.87;24.76172;999.8404;;;;
2019/07/20 08:21:17;;;;;;;6;5.2;;;;;;;39.35;24.33496;999.8045;;;;
2019/07/20 08:23:42;;;;;;;5.5;5;;;;;;;38.55;24.47656;999.7896;;;;
2019/07/20 08:26:07;;;;;;;9.1;4.8;;;;;;;37.71;26.21973;999.7285;;;;
2019/07/20 08:28:33;;;;;;;6;5;;;;;;;37.59;26.37109;999.7025;;;;
2019/07/20 08:30:58;;;;;;;6.2;5.4;;;;;;;38.28;25.26563;999.7147;;;;
2019/07/20 08:33:23;;;;;;;7.8;4.8;;;;;;;36.53;27.29297;999.7325;;;;
2019/07/20 08:35:48;;;;;;;8.9;4.8;;;;;;;36.97;26.8584;999.673;;;;
2019/07/20 08:38:14;;;;;;;6.4;5.1;;;;;;;36.28;28.03125;999.6591;;;;
2019/07/20 08:40:39;;;;;;;7.3;4.9;;;;;;;36.3;27.33984;999.6244;;;;
2019/07/20 08:43:04;;;;;;;7.6;5.1;;;;;;;36.85;26.55957;999.5651;;;;
2019/07/20 08:45:29;;;;;;;6.9;4.6;;;;;;;37.88;24.98828;999.5467;;;;
2019/07/20 08:47:54;;;;;;;7.1;5.3;;;;;;;37.94;25.00293;999.545;;;;
2019/07/20 08:50:19;;;;;;;6.2;4.8;;;;;;;38.61;24.54004;999.6161;;;;
2019/07/20 08:52:44;;;;;;;6.5;5;;;;;;;36.13;28.00879;999.5728;;;;
2019/07/20 08:55:09;;;;;;;6.6;5.3;;;;;;;36.5;27.19434;999.57;;;;
2019/07/20 08:57:34;;;;;;;7;5.4;;;;;;;36.95;27.06348;999.625;;;;
2019/07/20 09:00:00;;;;;;;5.5;4.9;;;;;;;36.09;27.64258;999.6372;;;;
2019/07/20 09:02:25;;;;;;;7.1;5;;;;;;;36.76;27.45215;999.5818;;;;
2019/07/20 09:04:50;;;;;;;5.7;4.9;;;;;;;36.8;27.04297;999.5552;;;;
2019/07/20 09:07:15;;;;;;;6.2;4.8;;;;;;;36.5;26.93945;999.5533;;;;
2019/07/20 09:09:40;;;;;;;7.9;5.2;;;;;;;36.41;27.49316;999.5737;;;;
2019/07/20 09:12:05;;;;;;;5.5;4.7;;;;;;;36.92;27.0127;999.5413;;;;
2019/07/20 09:14:30;;;;;;;7.5;4.9;;;;;;;36.16;28.22949;999.6046;;;;
2019/07/20 09:16:56;;;;;;;6.7;5.3;;;;;;;35.82;28.05078;999.5669;;;;
2019/07/20 09:19:21;;;;;;;9.5;5.7;;;;;;;35.04;29.83008;999.5283;;;;
2019/07/20 09:21:46;;;;;;;5.8;5.2;;;;;;;36.07;28.35742;999.4774;;;;
2019/07/20 09:24:11;;;;;;;8.5;4.9;;;;;;;36.52;27.65723;999.5302;;;;
2019/07/20 09:26:36;;;;;;;5.9;5.1;;;;;;;36.34;27.96094;999.5627;;;;
2019/07/20 09:29:02;;;;;;;7;5.2;;;;;;;36.05;28.80469;999.6046;;;;
2019/07/20 09:31:27;;;;;;;7.7;5.1;;;;;;;36.5;28.00781;999.5705;;;;
2019/07/20 09:33:52;;;;;;;7.2;5;;;;;;;37.6;26.76074;999.5669;;;;
2019/07/20 09:36:17;;;;;;;6.6;5.3;;;;;;;38.26;25.20313;999.5966;;;;
2019/07/20 09:38:42;;;;;;;7.1;5.5;;;;;;;37.47;26.51074;999.5714;;;;
2019/07/20 09:41:07;;;;;;;9;5.3;;;;;;;36.56;27.65918;999.5623;;;;
2019/07/20 09:43:32;;;;;;;6.1;5.5;;;;;;;35.78;29.29688;999.5458;;;;
2019/07/20 09:45:58;;;;;;;6.8;5.6;;;;;;;35.68;29.3623;999.4988;;;;
2019/07/20 09:48:23;;;;;;;8.4;5.2;;;;;;;36.24;29.2168;999.4395;;;;
2019/07/20 09:50:48;;;;;;;8;5.4;;;;;;;36.52;28.7002;999.4109;;;;
2019/07/20 09:53:13;;;;;;;9.4;5.7;;;;;;;34.82;31.45996;999.4395;;;;
2019/07/20 09:55:38;;;;;;;7;5.5;;;;;;;35.27;31.13965;999.3887;;;;
2019/07/20 09:58:03;;;;;;;8.5;5.6;;;;;;;36.05;29.6416;999.3527;;;;
2019/07/20 10:00:28;;;;;;;6.8;5.4;;;;;;;36.77;28.08496;999.4049;;;;
2019/07/20 10:02:53;;;;;;;6.5;5.4;;;;;;;35.36;30.02051;999.4308;;;;
2019/07/20 10:05:18;;;;;;;6.8;5.4;;;;;;;35.16;30.86621;999.3892;;;;
2019/07/20 10:07:44;;;;;;;9.1;5.6;;;;;;;35.29;30.54785;999.3862;;;;
2019/07/20 10:10:09;;;;;;;7.8;6;;;;;;;36.29;28.7832;999.4045;;;;
2019/07/20 10:12:34;;;;;;;8.9;5.4;;;;;;;37.69;26.69336;999.3582;;;;
2019/07/20 10:14:59;;;;;;;9.3;5.1;;;;;;;37.34;27.19531;999.3257;;;;
2019/07/20 10:17:24;;;;;;;6.7;5.2;;;;;;;37.09;26.91406;999.3247;;;;
2019/07/20 10:19:50;;;;;;;8.4;5.5;;;;;;;36.45;28.04102;999.3287;;;;
2019/07/20 10:22:15;;;;;;;7;5.4;;;;;;;35.89;29.40039;999.3334;;;;
2019/07/20 10:24:40;;;;;;;8;5.4;;;;;;;35.9;28.6377;999.3141;;;;
2019/07/20 10:27:05;;;;;;;7;5.7;;;;;;;35.85;29.16797;999.334;;;;
2019/07/20 10:29:30;;;;;;;7.7;5.4;;;;;;;36.96;27.20996;999.3061;;;;
2019/07/20 10:31:55;;;;;;;5.8;5.2;;;;;;;36.85;27.83398;999.3191;;;;
2019/07/20 10:34:20;;;;;;;10.2;5.7;;;;;;;36.21;28.37793;999.317;;;;
2019/07/20 10:36:45;;;;;;;6.8;5.2;;;;;;;36.49;28.01953;999.3854;;;;
2019/07/20 10:39:11;;;;;;;7.1;5.4;;;;;;;35.77;29.05371;999.389;;;;
2019/07/20 10:41:36;;;;;;;7.5;5.4;;;;;;;34.7;31.16113;999.4533;;;;
2019/07/20 10:44:01;;;;;;;14;5.6;;;;;;;34.08;32.25391;999.427;;;;
2019/07/20 10:46:26;;;;;;;7.4;5.3;;;;;;;34.7;31.07715;999.4419;;;;
2019/07/20 10:48:51;;;;;;;6;5.1;;;;;;;34.02;31.52539;999.5461;;;;
2019/07/20 10:51:17;;;;;;;5.8;4.9;;;;;;;33.41;32.4707;999.5432;;;;
2019/07/20 10:53:42;;;;;;;6.2;4.7;;;;;;;33.81;31.20898;999.522;;;;
2019/07/20 10:56:07;;;;;;;8.4;5.2;;;;;;;34.08;30.85352;999.5834;;;;
2019/07/20 10:58:33;;;;;;;7;5;;;;;;;34.32;30.56738;999.5461;;;;
2019/07/20 11:00:58;;;;;;;7.9;5.4;;;;;;;34.71;30.86035;999.5737;;;;
2019/07/20 11:03:23;;;;;;;9.8;5.4;;;;;;;33.82;32.27148;999.4839;;;;
2019/07/20 11:05:48;;;;;;;5.8;5.2;;;;;;;33.88;32.74609;999.5248;;;;
2019/07/20 11:08:13;;;;;;;10.5;5.5;;;;;;;34.3;31.79883;999.5267;;;;
2019/07/20 11:10:38;;;;;;;8.7;5;;;;;;;33.82;31.99414;999.5041;;;;
2019/07/20 11:13:03;;;;;;;8.8;5;;;;;;;33.86;30.48926;999.4808;;;;
2019/07/20 11:15:28;;;;;;;6.7;4.7;;;;;;;34.11;30.85547;999.4752;;;;
2019/07/20 11:17:53;;;;;;;6;4.7;;;;;;;33.67;31.06738;999.5066;;;;
2019/07/20 11:20:19;;;;;;;7.6;5;;;;;;;34.16;30.62988;999.476;;;;
2019/07/20 11:22:44;;;;;;;7;4.8;;;;;;;34.33;30.68945;999.4434;;;;
2019/07/20 11:25:09;;;;;;;7.4;5.2;;;;;;;34.27;31.39746;999.4682;;;;
2019/07/20 11:27:34;;;;;;;7.1;5;;;;;;;34.04;30.11426;999.3113;;;;
2019/07/20 11:29:59;;;;;;;6.9;4.9;;;;;;;34.53;29.22852;999.3798;;;;
2019/07/20 11:32:25;;;;;;;7.5;5;;;;;;;35;30.96484;999.3531;;;;
2019/07/20 11:34:49;;;;;;;6.9;5;;;;;;;34.5;32.10156;999.4343;;;;
2019/07/20 11:37:14;;;;;;;6.4;5.4;;;;;;;33.39;32.96484;999.4022;;;;
2019/07/20 11:39:40;;;;;;;5.6;5;;;;;;;33.34;32.26172;999.3655;;;;
2019/07/20 11:42:05;;;;;;;6;4.8;;;;;;;33.91;32.4707;999.3557;;;;
2019/07/20 11:44:30;;;;;;;7.5;5.3;;;;;;;34.64;32.53516;999.3549;;;;
2019/07/20 11:46:55;;;;;;;5.7;5;;;;;;;34.46;31.62891;999.2922;;;;
2019/07/20 11:49:20;;;;;;;7.4;5.6;;;;;;;34.24;32.49414;999.224;;;;
2019/07/20 11:51:45;;;;;;;6.4;5.2;;;;;;;34.46;30.44434;999.2693;;;;
2019/07/20 11:54:10;;;;;;;9.3;5.4;;;;;;;33.88;31.23828;999.2058;;;;
2019/07/20 11:56:35;;;;;;;8;5.1;;;;;;;34.36;30.67871;999.0761;;;;
2019/07/20 11:59:00;;;;;;;5.8;4.9;;;;;;;34.57;30.12598;999.0538;;;;
2019/07/20 12:01:25;;;;;;;8.9;5.1;;;;;;;34.81;29.66895;999.0167;;;;
2019/07/20 12:03:50;;;;;;;7.5;4.5;;;;;;;34.66;29.69531;999.0172;;;;
2019/07/20 12:06:16;;;;;;;6.8;4.9;;;;;;;34.85;29.93848;998.994;;;;
2019/07/20 12:08:41;;;;;;;6.2;4.6;;;;;;;34.98;28.24121;998.9314;;;;
2019/07/20 12:11:06;;;;;;;5.8;4.2;;;;;;;34.5;28.27246;998.9326;;;;
2019/07/20 12:13:31;;;;;;;6;4;;;;;;;34.61;28.41211;998.9014;;;;
2019/07/20 12:15:56;;;;;;;5.7;4.2;;;;;;;35.2;27.58984;998.9582;;;;
2019/07/20 12:18:21;;;;;;;6.5;4.8;;;;;;;35.07;27.23047;998.8806;;;;
2019/07/20 12:20:46;;;;;;;5.7;4.1;;;;;;;34.79;27.78223;998.8517;;;;
2019/07/20 12:23:11;;;;;;;7.9;4.2;;;;;;;34.36;28.16699;998.921;;;;
2019/07/20 12:25:36;;;;;;;7.7;4.4;;;;;;;34.29;28.48828;998.8613;;;;
2019/07/20 12:28:02;;;;;;;4.3;3.9;;;;;;;34.38;28.54297;998.8183;;;;
2019/07/20 12:30:26;;;;;;;6.7;4.1;;;;;;;34.32;28.80371;998.793;;;;
2019/07/20 12:32:51;;;;;;;5.2;4.1;;;;;;;34.5;28.23535;998.7608;;;;
2019/07/20 12:35:17;;;;;;;5.7;4.3;;;;;;;34.34;28.45508;998.8;;;;
2019/07/20 12:37:42;;;;;;;7.4;4.4;;;;;;;33.95;28.88965;998.8727;;;;
2019/07/20 12:40:07;;;;;;;5.9;4.8;;;;;;;34.3;28.50098;998.796;;;;
2019/07/20 12:42:32;;;;;;;7.4;4.6;;;;;;;34.08;28.28223;998.7128;;;;
2019/07/20 12:44:57;;;;;;;5.2;4.2;;;;;;;34.09;28.69336;998.7831;;;;
2019/07/20 12:47:22;;;;;;;5.7;4.3;;;;;;;34.07;29.12695;998.7892;;;;
2019/07/20 12:49:47;;;;;;;7.8;4;;;;;;;34.21;28.25391;998.7605;;;;
2019/07/20 12:52:12;;;;;;;6.4;4.1;;;;;;;33.91;28.60938;998.7201;;;;
2019/07/20 12:54:38;;;;;;;7;4;;;;;;;34.14;27.79102;998.815;;;;
2019/07/20 12:57:03;;;;;;;6;4;;;;;;;33.8;28.04785;998.8457;;;;
2019/07/20 12:59:28;;;;;;;4.3;3.7;;;;;;;33.6;28.73535;998.8781;;;;
2019/07/20 13:01:53;;;;;;;7;4.1;;;;;;;33.33;28.85059;998.8179;;;;
2019/07/20 13:04:18;;;;;;;7;3.9;;;;;;;33.38;29.14258;998.8236;;;;
2019/07/20 13:06:43;;;;;;;4.8;3.8;;;;;;;33.06;29.54395;998.8611;;;;
2019/07/20 13:09:08;;;;;;;10;3.9;;;;;;;33.13;29.1748;998.8525;;;;
2019/07/20 13:11:33;;;;;;;6.9;3.8;;;;;;;33.18;28.63574;998.7759;;;;
2019/07/20 13:13:58;;;;;;;6.5;4;;;;;;;33.49;28.08887;998.8403;;;;
2019/07/20 13:16:23;;;;;;;5;3.6;;;;;;;33.56;28.21387;998.8156;;;;
2019/07/20 13:18:48;;;;;;;6;4.3;;;;;;;33.76;28.09375;998.7569;;;;
2019/07/20 13:21:13;;;;;;;6.4;4;;;;;;;33.57;28.48047;998.7472;;;;
2019/07/20 13:23:38;;;;;;;5.3;3.9;;;;;;;33.8;27.89063;998.7004;;;;
2019/07/20 13:26:04;;;;;;;5.2;3.8;;;;;;;33.78;28.13086;998.6885;;;;
2019/07/20 13:28:29;;;;;;;5.2;3.9;;;;;;;33.89;27.5957;998.6033;;;;
2019/07/20 13:30:54;;;;;;;4.7;3.7;;;;;;;34.01;27.6377;998.6158;;;;
2019/07/20 13:33:19;;;;;;;4.6;3.9;;;;;;;34.01;27.43359;998.6049;;;;
2019/07/20 13:35:44;;;;;;;7.7;4;;;;;;;33.79;27.9873;998.5201;;;;
2019/07/20 13:38:09;;;;;;;5.5;3.9;;;;;;;33.53;27.71777;998.6433;;;;
2019/07/20 13:40:34;;;;;;;5.9;3.7;;;;;;;33.49;27.87207;998.4597;;;;
2019/07/20 13:42:59;;;;;;;4.4;3.6;;;;;;;33.57;27.79297;998.4832;;;;
2019/07/20 13:45:25;;;;;;;7.2;3.8;;;;;;;33.66;27.55664;998.4653;;;;
2019/07/20 13:47:50;;;;;;;5.2;3.8;;;;;;;33.85;27.45996;998.3998;;;;
2019/07/20 13:50:15;;;;;;;5;3.7;;;;;;;33.88;27.12402;998.3389;;;;
2019/07/20 13:52:40;;;;;;;5.9;3.6;;;;;;;33.7;27.74023;998.4046;;;;
2019/07/20 13:55:05;;;;;;;5.9;3.7;;;;;;;34.18;26.82715;998.2325;;;;
2019/07/20 13:57:30;;;;;;;6.5;3.3;;;;;;;34.22;26.70898;998.2863;;;;
2019/07/20 13:59:55;;;;;;;8.6;3.8;;;;;;;33.84;26.73535;998.3725;;;;
2019/07/20 14:02:20;;;;;;;5.4;3.4;;;;;;;33.42;27.22852;998.2853;;;;
2019/07/20 14:04:45;;;;;;;6.5;3.6;;;;;;;33.17;27.68359;998.2537;;;;
2019/07/20 14:07:11;;;;;;;5.6;3.6;;;;;;;33.11;27.75195;998.282;;;;
2019/07/20 14:09:36;;;;;;;7.1;3.8;;;;;;;33.58;27.22559;998.3086;;;;
2019/07/20 14:12:01;;;;;;;5.6;3.4;;;;;;;33.74;27.03125;998.3535;;;;
2019/07/20 14:14:26;;;;;;;6.4;3.7;;;;;;;33.61;26.68555;998.3395;;;;
2019/07/20 14:16:51;;;;;;;9;3.5;;;;;;;33.76;27.00781;998.332;;;;